createdAt,value
2023-04-15T00:02:18.392Z,4.90
2023-04-15T00:04:47.016Z,6.60
2023-04-15T00:07:16.297Z,4.90
2023-04-15T00:09:44.752Z,4.90
2023-04-15T00:12:12.905Z,4.90
2023-04-15T00:14:40.933Z,5.00
2023-04-15T00:17:09.074Z,5.20
2023-04-15T00:19:38.532Z,4.90
2023-04-15T00:22:06.467Z,5.00
2023-04-15T00:24:34.509Z,5.00
2023-04-15T00:27:02.445Z,5.00
2023-04-15T00:29:30.573Z,5.00
2023-04-15T00:31:58.572Z,5.70
2023-04-15T00:34:26.643Z,5.20
2023-04-15T00:36:56.003Z,5.10
2023-04-15T00:39:24.167Z,5.10
2023-04-15T00:41:52.758Z,5.80
2023-04-15T00:44:21.050Z,5.30
2023-04-15T00:46:51.856Z,5.30
2023-04-15T00:49:20.113Z,5.10
2023-04-15T00:51:48.153Z,5.10
2023-04-15T00:54:18.024Z,5.10
2023-04-15T00:56:46.243Z,5.10
2023-04-15T00:59:16.778Z,5.10
2023-04-15T01:01:46.345Z,5.50
2023-04-15T01:04:15.204Z,5.70
2023-04-15T01:06:43.177Z,5.10
2023-04-15T01:09:11.221Z,5.10
2023-04-15T01:11:40.948Z,6.00
2023-04-15T01:14:10.467Z,5.40
2023-04-15T01:16:39.824Z,5.10
2023-04-15T01:19:09.461Z,5.10
2023-04-15T01:21:38.189Z,5.10
2023-04-15T01:24:11.498Z,5.10
2023-04-15T01:26:42.317Z,5.10
2023-04-15T01:29:11.022Z,5.10
2023-04-15T01:31:39.071Z,5.10
2023-04-15T01:34:07.062Z,5.10
2023-04-15T01:36:35.567Z,5.10
2023-04-15T01:39:03.665Z,5.40
2023-04-15T01:41:31.662Z,5.70
2023-04-15T01:44:01.631Z,5.10
2023-04-15T01:46:29.604Z,6.60
2023-04-15T01:48:57.647Z,5.30
2023-04-15T01:51:25.685Z,5.10
2023-04-15T01:53:53.747Z,5.10
2023-04-15T01:56:21.733Z,5.10
2023-04-15T01:58:49.758Z,5.10
2023-04-15T02:01:20.962Z,5.10
2023-04-15T02:03:49.587Z,5.10
2023-04-15T02:06:18.448Z,5.10
2023-04-15T02:08:46.468Z,5.10
2023-04-15T02:11:14.669Z,5.40
2023-04-15T02:13:42.819Z,5.00
2023-04-15T02:16:18.748Z,5.00
2023-04-15T02:18:47.015Z,5.10
2023-04-15T02:21:15.076Z,5.00
2023-04-15T02:23:44.049Z,5.00
2023-04-15T02:26:12.081Z,5.00
2023-04-15T02:28:40.044Z,5.00
2023-04-15T02:31:09.565Z,5.10
2023-04-15T02:33:38.955Z,5.00
2023-04-15T02:36:07.859Z,5.00
2023-04-15T02:38:36.051Z,5.00
2023-04-15T02:41:04.015Z,5.00
2023-04-15T02:43:32.135Z,5.10
2023-04-15T02:46:00.207Z,5.10
2023-04-15T02:48:28.554Z,5.10
2023-04-15T02:51:12.564Z,5.10
2023-04-15T02:53:41.539Z,5.10
2023-04-15T02:56:09.749Z,5.10
2023-04-15T02:58:37.817Z,5.10
2023-04-15T03:01:05.898Z,5.10
2023-04-15T03:03:34.049Z,5.30
2023-04-15T03:06:03.574Z,5.10
2023-04-15T03:08:31.569Z,5.10
2023-04-15T03:11:00.893Z,5.20
2023-04-15T03:13:29.177Z,5.10
2023-04-15T03:15:57.179Z,5.10
2023-04-15T03:18:25.402Z,5.10
2023-04-15T03:20:53.341Z,6.70
2023-04-15T03:23:22.635Z,5.10
2023-04-15T03:25:50.568Z,5.10
2023-04-15T03:28:18.537Z,5.10
2023-04-15T03:30:46.455Z,5.10
2023-04-15T03:33:14.521Z,5.40
2023-04-15T03:35:42.524Z,5.10
2023-04-15T03:38:10.653Z,5.10
2023-04-15T03:40:40.615Z,5.10
2023-04-15T03:43:08.594Z,5.90
2023-04-15T03:45:36.764Z,5.10
2023-04-15T03:48:16.667Z,5.10
2023-04-15T03:50:45.523Z,5.10
2023-04-15T03:53:13.496Z,5.10
2023-04-15T03:55:43.120Z,5.10
2023-04-15T03:58:12.951Z,5.10
2023-04-15T04:00:41.500Z,5.10
2023-04-15T04:03:09.840Z,5.10
2023-04-15T04:05:39.065Z,5.10
2023-04-15T04:08:07.506Z,5.10
2023-04-15T04:10:35.870Z,5.10
2023-04-15T04:13:18.760Z,5.10
2023-04-15T04:16:07.358Z,6.10
2023-04-15T04:18:35.988Z,5.10
2023-04-15T04:21:04.226Z,5.10
2023-04-15T04:23:36.801Z,5.00
2023-04-15T04:26:04.957Z,5.00
2023-04-15T04:28:35.228Z,5.00
2023-04-15T04:33:33.968Z,5.00
2023-04-15T04:36:01.907Z,5.00
2023-04-15T04:38:29.951Z,5.00
2023-04-15T04:40:57.889Z,5.00
2023-04-15T04:43:26.142Z,4.90
2023-04-15T04:45:55.856Z,4.90
2023-04-15T04:48:23.896Z,5.00
2023-04-15T04:50:52.050Z,5.00
2023-04-15T04:53:20.162Z,5.20
2023-04-15T04:55:48.095Z,5.00
2023-04-15T04:58:16.366Z,5.00
2023-04-15T05:00:44.313Z,5.00
2023-04-15T05:03:13.821Z,5.00
2023-04-15T05:05:41.868Z,5.00
2023-04-15T05:08:09.846Z,5.00
2023-04-15T05:10:37.850Z,5.00
2023-04-15T05:13:05.799Z,5.00
2023-04-15T05:15:35.004Z,5.00
2023-04-15T05:18:03.181Z,5.00
2023-04-15T05:20:32.668Z,5.00
2023-04-15T05:23:00.635Z,5.00
2023-04-15T05:25:28.596Z,5.00
2023-04-15T05:27:56.540Z,5.00
2023-04-15T05:30:24.573Z,5.00
2023-04-15T05:32:53.047Z,5.00
2023-04-15T05:35:21.028Z,5.00
2023-04-15T05:37:50.500Z,5.00
2023-04-15T05:40:18.867Z,5.00
2023-04-15T05:42:46.862Z,5.00
2023-04-15T05:45:14.858Z,5.00
2023-04-15T05:47:43.167Z,5.00
2023-04-15T05:50:12.116Z,5.00
2023-04-15T05:52:40.044Z,5.00
2023-04-15T05:55:10.216Z,5.00
2023-04-15T05:57:38.123Z,5.10
2023-04-15T06:00:07.269Z,5.10
2023-04-15T06:02:35.445Z,5.10
2023-04-15T06:05:04.061Z,5.20
2023-04-15T06:07:32.136Z,5.20
2023-04-15T06:10:00.145Z,5.20
2023-04-15T06:12:29.537Z,6.40
2023-04-15T06:14:59.941Z,5.30
2023-04-15T06:17:28.205Z,5.50
2023-04-15T06:19:56.475Z,5.40
2023-04-15T06:22:24.733Z,5.50
2023-04-15T06:24:53.093Z,5.50
2023-04-15T06:27:21.494Z,5.50
2023-04-15T06:29:50.981Z,5.50
2023-04-15T06:32:18.935Z,5.60
2023-04-15T06:34:46.873Z,5.60
2023-04-15T06:37:16.315Z,5.60
2023-04-15T06:39:44.677Z,5.70
2023-04-15T06:42:13.074Z,5.70
2023-04-15T06:44:41.187Z,5.80
2023-04-15T06:47:10.468Z,7.30
2023-04-15T06:49:38.656Z,5.90
2023-04-15T06:52:06.707Z,5.90
2023-04-15T06:54:34.823Z,5.90
2023-04-15T06:57:02.812Z,6.00
2023-04-15T06:59:30.923Z,6.00
2023-04-15T07:01:58.920Z,6.00
2023-04-15T07:04:28.284Z,6.10
2023-04-15T07:06:56.837Z,6.10
2023-04-15T07:09:25.761Z,6.20
2023-04-15T07:11:53.718Z,6.00
2023-04-15T07:14:21.828Z,6.00
2023-04-15T07:16:49.893Z,6.00
2023-04-15T07:19:17.918Z,6.00
2023-04-15T07:21:48.119Z,6.00
2023-04-15T07:24:18.222Z,6.10
2023-04-15T07:26:46.175Z,6.10
2023-04-15T07:29:14.101Z,6.10
2023-04-15T07:31:42.657Z,6.10
2023-04-15T07:34:10.777Z,6.30
2023-04-15T07:36:38.790Z,6.10
2023-04-15T07:39:08.113Z,6.20
2023-04-15T07:41:36.131Z,6.20
2023-04-15T07:44:04.076Z,6.20
2023-04-15T07:46:32.152Z,6.20
2023-04-15T07:49:00.799Z,6.30
2023-04-15T07:51:29.858Z,6.40
2023-04-15T07:53:58.263Z,6.50
2023-04-15T07:56:27.853Z,6.70
2023-04-15T07:58:56.136Z,6.80
2023-04-15T08:01:24.417Z,8.90
2023-04-15T08:03:54.414Z,7.00
2023-04-15T08:06:22.749Z,7.00
2023-04-15T08:08:51.116Z,8.90
2023-04-15T08:11:19.408Z,8.90
2023-04-15T08:13:50.238Z,7.30
2023-04-15T08:16:22.783Z,7.40
2023-04-15T08:18:52.414Z,7.30
2023-04-15T08:21:21.163Z,7.30
2023-04-15T08:23:51.224Z,7.20
2023-04-15T08:26:19.392Z,8.00
2023-04-15T08:28:49.310Z,7.30
2023-04-15T08:31:19.140Z,7.30
2023-04-15T08:33:48.970Z,7.20
2023-04-15T08:36:17.644Z,7.30
2023-04-15T08:38:46.229Z,7.10
2023-04-15T08:41:24.327Z,7.10
2023-04-15T08:46:43.246Z,7.30
2023-04-15T08:49:12.872Z,7.30
2023-04-15T08:51:41.909Z,7.20
2023-04-15T08:54:12.369Z,7.10
2023-04-15T08:56:41.454Z,7.00
2023-04-15T08:59:17.469Z,7.90
2023-04-15T09:01:46.377Z,7.00
2023-04-15T09:04:18.232Z,6.90
2023-04-15T09:06:46.818Z,7.90
2023-04-15T09:09:16.056Z,7.00
2023-04-15T09:11:50.154Z,9.00
2023-04-15T09:14:19.995Z,7.10
2023-04-15T09:16:58.847Z,8.10
2023-04-15T09:19:28.415Z,7.00
2023-04-15T09:21:59.274Z,8.90
2023-04-15T09:24:38.363Z,7.20
2023-04-15T09:27:06.883Z,9.10
2023-04-15T09:29:37.387Z,7.10
2023-04-15T09:32:13.076Z,7.10
2023-04-15T09:34:43.350Z,7.00
2023-04-15T09:37:28.541Z,7.10
2023-04-15T09:40:00.186Z,7.20
2023-04-15T09:45:29.859Z,9.40
2023-04-15T09:47:59.386Z,7.20
2023-04-15T09:50:34.478Z,9.20
2023-04-15T09:53:10.790Z,9.20
2023-04-15T09:55:39.478Z,6.60
2023-04-15T09:58:10.922Z,8.30
2023-04-15T10:00:40.640Z,8.00
2023-04-15T10:03:09.703Z,7.60
2023-04-15T10:05:39.120Z,7.60
2023-04-15T10:08:07.388Z,7.70
2023-04-15T10:10:35.677Z,9.80
2023-04-15T10:13:04.049Z,8.00
2023-04-15T10:15:33.783Z,8.10
2023-04-15T10:18:05.226Z,9.50
2023-04-15T10:20:33.725Z,8.00
2023-04-15T10:23:03.283Z,8.10
2023-04-15T10:25:32.335Z,8.00
2023-04-15T10:28:01.372Z,8.10
2023-04-15T10:30:31.109Z,8.10
2023-04-15T10:32:59.538Z,8.00
2023-04-15T10:35:30.732Z,8.00
2023-04-15T10:37:59.140Z,8.00
2023-04-15T10:40:31.308Z,9.00
2023-04-15T10:43:01.150Z,8.10
2023-04-15T10:45:33.361Z,8.00
2023-04-15T10:48:04.711Z,8.10
2023-04-15T10:50:34.466Z,8.20
2023-04-15T10:53:05.935Z,8.20
2023-04-15T10:55:35.177Z,8.10
2023-04-15T10:58:04.088Z,8.10
2023-04-15T11:00:35.198Z,8.10
2023-04-15T11:03:08.521Z,8.00
2023-04-15T11:05:52.586Z,8.10
2023-04-15T11:08:21.569Z,8.20
2023-04-15T11:10:54.158Z,8.20
2023-04-15T11:13:26.328Z,8.30
2023-04-15T11:16:01.795Z,8.40
2023-04-15T11:18:36.378Z,8.40
2023-04-15T11:21:08.194Z,8.40
2023-04-15T11:23:41.374Z,8.60
2023-04-15T11:26:12.446Z,8.70
2023-04-15T11:28:42.530Z,8.90
2023-04-15T11:31:12.724Z,9.10
2023-04-15T11:33:47.213Z,9.00
2023-04-15T11:36:16.578Z,9.00
2023-04-15T11:38:46.162Z,9.10
2023-04-15T11:41:14.522Z,8.70
2023-04-15T11:43:42.722Z,8.60
2023-04-15T11:46:10.863Z,8.60
2023-04-15T11:48:44.276Z,8.60
2023-04-15T11:51:13.738Z,8.60
2023-04-15T11:53:44.731Z,8.70
2023-04-15T11:56:18.649Z,8.80
2023-04-15T11:58:47.198Z,8.90
2023-04-15T12:01:15.245Z,8.90
2023-04-15T12:03:44.771Z,9.00
2023-04-15T12:06:16.760Z,8.80
2023-04-15T12:09:00.731Z,8.70
2023-04-15T12:11:34.366Z,8.70
2023-04-15T12:14:06.714Z,8.60
2023-04-15T12:16:49.175Z,8.70
2023-04-15T12:19:23.523Z,8.60
2023-04-15T12:22:00.524Z,8.60
2023-04-15T12:24:33.093Z,8.50
2023-04-15T12:27:04.120Z,10.70
2023-04-15T12:29:33.096Z,10.00
2023-04-15T12:32:07.076Z,8.30
2023-04-15T12:34:36.823Z,8.10
2023-04-15T12:37:07.651Z,8.20
2023-04-15T12:39:38.563Z,8.00
2023-04-15T12:42:07.858Z,7.90
2023-04-15T12:44:36.857Z,7.80
2023-04-15T12:47:05.402Z,7.70
2023-04-15T12:49:34.020Z,7.90
2023-04-15T12:52:03.252Z,7.80
2023-04-15T12:54:32.179Z,7.80
2023-04-15T12:57:04.704Z,7.80
2023-04-15T12:59:34.672Z,7.80
2023-04-15T13:02:03.222Z,8.00
2023-04-15T13:04:32.022Z,7.80
2023-04-15T13:07:00.437Z,8.30
2023-04-15T13:09:28.484Z,7.90
2023-04-15T13:11:57.739Z,8.00
2023-04-15T13:14:27.229Z,8.10
2023-04-15T13:16:55.268Z,8.20
2023-04-15T13:19:23.409Z,8.40
2023-04-15T13:21:51.491Z,9.20
2023-04-15T13:24:19.597Z,9.00
2023-04-15T13:26:50.146Z,8.90
2023-04-15T13:29:18.462Z,8.60
2023-04-15T13:31:47.946Z,8.50
2023-04-15T13:34:16.053Z,8.50
2023-04-15T13:36:44.124Z,8.40
2023-04-15T13:39:12.119Z,8.30
2023-04-15T13:41:41.361Z,8.40
2023-04-15T13:44:10.029Z,8.20
2023-04-15T13:46:39.566Z,8.20
2023-04-15T13:49:09.092Z,9.30
2023-04-15T13:51:37.191Z,8.40
2023-04-15T13:54:05.755Z,8.40
2023-04-15T13:56:34.095Z,8.40
2023-04-15T13:59:03.170Z,8.60
2023-04-15T14:01:31.353Z,8.70
2023-04-15T14:03:59.659Z,9.60
2023-04-15T14:06:32.252Z,9.10
2023-04-15T14:09:00.393Z,9.10
2023-04-15T14:11:28.482Z,9.10
2023-04-15T14:13:56.532Z,8.90
2023-04-15T14:16:24.583Z,9.00
2023-04-15T14:18:52.627Z,9.00
2023-04-15T14:21:20.764Z,10.00
2023-04-15T14:23:50.209Z,10.30
2023-04-15T14:26:18.167Z,9.10
2023-04-15T14:28:46.182Z,9.10
2023-04-15T14:31:14.356Z,9.00
2023-04-15T14:33:42.457Z,9.10
2023-04-15T14:36:11.413Z,9.20
2023-04-15T14:38:40.194Z,9.50
2023-04-15T14:41:10.182Z,10.90
2023-04-15T14:43:38.423Z,9.40
2023-04-15T14:46:06.654Z,9.30
2023-04-15T14:48:34.731Z,9.50
2023-04-15T14:51:02.701Z,9.20
2023-04-15T14:53:30.725Z,9.20
2023-04-15T14:55:58.816Z,9.00
2023-04-15T14:58:28.356Z,8.70
2023-04-15T15:00:56.461Z,8.50
2023-04-15T15:03:24.878Z,8.50
2023-04-15T15:05:52.977Z,8.50
2023-04-15T15:08:21.097Z,8.40
2023-04-15T15:10:50.022Z,7.10
2023-04-15T15:13:18.997Z,8.30
2023-04-15T15:15:49.667Z,8.20
2023-04-15T15:18:18.915Z,8.20
2023-04-15T15:20:47.625Z,8.20
2023-04-15T15:23:15.601Z,8.10
2023-04-15T15:25:43.670Z,8.30
2023-04-15T15:28:11.816Z,8.30
2023-04-15T15:30:39.818Z,8.40
2023-04-15T15:33:09.174Z,8.50
2023-04-15T15:35:37.287Z,8.60
2023-04-15T15:38:05.402Z,8.90
2023-04-15T15:40:33.323Z,8.60
2023-04-15T15:43:01.280Z,8.70
2023-04-15T15:45:29.426Z,8.60
2023-04-15T15:47:58.917Z,8.50
2023-04-15T15:50:28.375Z,8.50
2023-04-15T15:52:56.442Z,8.30
2023-04-15T15:55:25.844Z,8.20
2023-04-15T15:57:53.969Z,8.20
2023-04-15T16:00:23.240Z,8.20
2023-04-15T16:03:05.930Z,8.30
2023-04-15T16:05:37.018Z,8.30
2023-04-15T16:08:05.455Z,8.30
2023-04-15T16:10:33.549Z,8.20
2023-04-15T16:13:01.999Z,8.60
2023-04-15T16:15:30.286Z,8.10
2023-04-15T16:17:58.491Z,8.10
2023-04-15T16:20:26.505Z,8.10
2023-04-15T16:22:57.819Z,7.90
2023-04-15T16:25:25.835Z,7.90
2023-04-15T16:28:00.882Z,7.80
2023-04-15T16:30:31.452Z,7.90
2023-04-15T16:32:59.633Z,7.70
2023-04-15T16:35:28.426Z,7.70
2023-04-15T16:37:57.912Z,7.70
2023-04-15T16:40:26.113Z,7.70
2023-04-15T16:42:54.427Z,7.60
2023-04-15T16:45:22.425Z,7.60
2023-04-15T16:47:50.621Z,7.60
2023-04-15T16:50:18.845Z,7.60
2023-04-15T16:52:46.852Z,7.60
2023-04-15T16:55:16.423Z,7.50
2023-04-15T16:58:01.000Z,7.50
2023-04-15T17:00:31.638Z,7.50
2023-04-15T17:03:00.058Z,7.80
2023-04-15T17:05:28.405Z,7.40
2023-04-15T17:07:56.372Z,7.50
2023-04-15T17:10:25.829Z,7.50
2023-04-15T17:12:54.409Z,7.50
2023-04-15T17:15:22.577Z,7.50
2023-04-15T17:17:50.842Z,9.30
2023-04-15T17:20:19.048Z,8.20
2023-04-15T17:22:47.061Z,7.40
2023-04-15T17:25:15.647Z,7.80
2023-04-15T17:27:45.093Z,7.40
2023-04-15T17:30:13.353Z,7.40
2023-04-15T17:32:41.430Z,7.40
2023-04-15T17:35:10.133Z,8.40
2023-04-15T17:37:38.754Z,7.30
2023-04-15T17:40:08.961Z,7.30
2023-04-15T17:42:37.284Z,7.20
2023-04-15T17:45:07.819Z,8.00
2023-04-15T17:47:35.935Z,7.10
2023-04-15T17:50:03.947Z,7.10
2023-04-15T17:52:31.921Z,7.00
2023-04-15T17:54:59.936Z,8.10
2023-04-15T17:57:28.001Z,7.00
2023-04-15T17:59:56.287Z,7.00
2023-04-15T18:02:25.935Z,7.00
2023-04-15T18:04:54.264Z,7.00
2023-04-15T18:07:22.428Z,7.00
2023-04-15T18:09:51.624Z,6.90
2023-04-15T18:12:19.686Z,7.60
2023-04-15T18:14:47.832Z,6.90
2023-04-15T18:17:35.267Z,6.90
2023-04-15T18:20:23.269Z,6.80
2023-04-15T18:22:51.930Z,6.80
2023-04-15T18:25:20.251Z,6.80
2023-04-15T18:27:48.275Z,6.70
2023-04-15T18:30:16.247Z,6.70
2023-04-15T18:32:45.572Z,6.70
2023-04-15T18:35:13.576Z,6.70
2023-04-15T18:37:41.676Z,6.70
2023-04-15T18:40:10.638Z,7.00
2023-04-15T18:42:38.681Z,6.70
2023-04-15T18:45:07.606Z,6.70
2023-04-15T18:47:35.766Z,6.70
2023-04-15T18:50:05.448Z,6.70
2023-04-15T18:52:34.225Z,6.60
2023-04-15T18:55:03.268Z,7.50
2023-04-15T18:57:35.118Z,8.40
2023-04-15T19:00:04.503Z,6.60
2023-04-15T19:02:32.592Z,6.60
2023-04-15T19:05:03.669Z,6.70
2023-04-15T19:07:33.178Z,6.60
2023-04-15T19:10:01.249Z,6.60
2023-04-15T19:12:29.318Z,6.60
2023-04-15T19:14:57.321Z,7.40
2023-04-15T19:17:25.513Z,7.00
2023-04-15T19:19:53.562Z,6.60
2023-04-15T19:22:21.618Z,6.60
2023-04-15T19:24:52.388Z,6.50
2023-04-15T19:27:24.249Z,6.60
2023-04-15T19:29:52.380Z,6.70
2023-04-15T19:32:21.279Z,6.60
2023-04-15T19:34:49.816Z,6.60
2023-04-15T19:37:18.870Z,6.60
2023-04-15T19:39:46.969Z,6.50
2023-04-15T19:42:17.121Z,6.50
2023-04-15T19:44:45.487Z,6.50
2023-04-15T19:47:13.608Z,6.50
2023-04-15T19:49:41.987Z,6.50
2023-04-15T19:52:09.953Z,6.50
2023-04-15T19:54:38.008Z,6.50
2023-04-15T19:57:06.133Z,7.60
2023-04-15T19:59:35.476Z,6.50
2023-04-15T20:02:03.744Z,6.50
2023-04-15T20:04:31.949Z,6.50
2023-04-15T20:07:00.148Z,6.40
2023-04-15T20:09:28.140Z,6.50
2023-04-15T20:12:46.653Z,8.60
2023-04-15T20:14:45.924Z,7.40
2023-04-15T20:17:16.085Z,6.70
2023-04-15T20:19:44.184Z,6.40
2023-04-15T20:22:12.277Z,6.50
2023-04-15T20:24:40.759Z,7.60
2023-04-15T20:27:08.956Z,8.90
2023-04-15T20:29:37.763Z,8.10
2023-04-15T20:32:11.342Z,7.70
2023-04-15T20:34:40.129Z,6.40
2023-04-15T20:37:08.345Z,6.50
2023-04-15T20:39:36.417Z,6.40
2023-04-15T20:42:04.624Z,6.50
2023-04-15T20:44:34.551Z,6.40
2023-04-15T20:47:02.670Z,6.70
2023-04-15T20:49:34.538Z,6.50
2023-04-15T20:52:02.619Z,6.50
2023-04-15T20:54:30.666Z,8.20
2023-04-15T20:56:59.031Z,6.50
2023-04-15T20:59:27.179Z,8.10
2023-04-15T21:01:56.931Z,6.50
2023-04-15T21:04:26.155Z,6.50
2023-04-15T21:06:55.558Z,6.50
2023-04-15T21:09:23.621Z,6.50
2023-04-15T21:14:22.903Z,6.50
2023-04-15T21:16:50.942Z,6.80
2023-04-15T21:19:19.109Z,6.40
2023-04-15T21:21:47.067Z,6.50
2023-04-15T21:24:16.533Z,6.40
2023-04-15T21:26:44.650Z,6.90
2023-04-15T21:29:12.970Z,7.00
2023-04-15T21:31:41.447Z,6.50
2023-04-15T21:34:10.074Z,6.40
2023-04-15T21:36:38.778Z,7.20
2023-04-15T21:39:07.296Z,6.40
2023-04-15T21:41:37.758Z,7.40
2023-04-15T21:44:06.085Z,7.60
2023-04-15T21:46:35.831Z,6.40
2023-04-15T21:49:04.699Z,6.50
2023-04-15T21:51:33.085Z,6.40
2023-04-15T21:54:01.443Z,6.80
2023-04-15T21:56:29.567Z,6.40
2023-04-15T21:58:59.339Z,6.40
2023-04-15T22:01:27.866Z,6.40
2023-04-15T22:03:56.223Z,6.40
2023-04-15T22:06:24.370Z,7.30
2023-04-15T22:08:57.447Z,7.30
2023-04-15T22:11:28.227Z,6.80
2023-04-15T22:14:00.055Z,8.30
2023-04-15T22:16:28.481Z,6.40
2023-04-15T22:18:56.994Z,6.70
2023-04-15T22:21:25.247Z,6.40
2023-04-15T22:24:38.036Z,6.40
2023-04-15T22:26:42.015Z,6.40
2023-04-15T22:29:11.696Z,6.40
2023-04-15T22:31:39.765Z,6.40
2023-04-15T22:34:08.587Z,6.40
2023-04-15T22:36:36.648Z,7.00
2023-04-15T22:39:05.102Z,6.40
2023-04-15T22:41:33.255Z,6.40
2023-04-15T22:44:01.229Z,6.50
2023-04-15T22:46:30.819Z,6.50
2023-04-15T22:48:58.923Z,6.90
2023-04-15T22:51:28.090Z,6.50
2023-04-15T22:53:56.196Z,7.20
2023-04-15T22:56:24.734Z,6.50
2023-04-15T22:58:53.388Z,6.40
2023-04-15T23:01:21.858Z,7.60
2023-04-15T23:03:55.599Z,6.50
2023-04-15T23:06:25.650Z,7.10
2023-04-15T23:08:54.267Z,6.40
2023-04-15T23:11:22.404Z,6.70
2023-04-15T23:13:51.074Z,6.40
2023-04-15T23:16:19.253Z,8.10
2023-04-15T23:18:47.352Z,8.10
2023-04-15T23:21:17.111Z,7.60
2023-04-15T23:23:45.175Z,7.50
2023-04-15T23:26:13.306Z,7.30
2023-04-15T23:28:41.379Z,6.40
2023-04-15T23:31:09.464Z,6.30
2023-04-15T23:33:38.171Z,7.90
2023-04-15T23:36:06.970Z,6.40
2023-04-15T23:38:36.536Z,6.30
2023-04-15T23:41:04.556Z,7.50
2023-04-15T23:43:32.570Z,6.50
2023-04-15T23:46:00.504Z,6.80
2023-04-15T23:48:30.113Z,6.40
2023-04-15T23:50:58.139Z,7.90
2023-04-15T23:53:26.117Z,6.40
2023-04-15T23:55:55.498Z,6.30
2023-04-15T23:58:23.598Z,6.40
